Denver International Airport
KDEN : now visible

Airfield :











YOU CAN JOIN US ON...

 
LOGIN :

Register | Disclaimer

   EN    FR    IT 

 









Legend :    VFR   Marginal VFR   IFR   Intensive IFR   Very Intensive IFR
Visi :
Ceiling :
>= 8 km
>= 3000ft
5 to 8 km
1000 to 3000 ft
1500m to 5 km
500 to 1000 ft
800 to 1500m
200 to 500 ft
< 800m
< 200 ft
Symbols :   Thunderstorms  Fog  Heavy snow  Heavy precipitations  Wind > 20 kt






- Airport Elevation : 5431 ft
- IATA code : DEN


KDEN - Denver International

CURRENT METAR :
  • 122253Z 00000KT 10SM BKN250 17/M14 A3000 RMK AO2 SLP137 T01671144

EXPIRED METARs :
  • 122153Z 00000KT 10SM SCT250 18/M18 A3001 RMK AO2 SLP148 T01781183
  • 122053Z 23003KT 10SM FEW100 SCT250 17/M19 A3003 RMK AO2 SLP153 T01671194 56028

TAF KDEN
Valid from the 13 at 00:00 until the 14 at 06:00 UTC


122320Z 1300/1406 15005KT P6SM BKN250
FM130300 20009KT P6SM FEW140 BKN220
FM131600 01007KT P6SM SCT090 BKN180
FM131900 04014G20KT P6SM SCT090 BKN150
FM132300 10012KT P6SM BKN090
FM140300 14008KT P6SM BKN090



MET'MAP, your aeronautical weather chart ! - Copyright ORBIFLY December 2007 - Disclaimer

ORBIFLY MET'MAP TEAM :

Programming & Development : Alexandra Zaïnal
Concept & Development : Baudouin d'Aumeries
Co-Development & Prog : Marc-Olivier Méhu
Technical & hardware support : Manuel Goepfert

Contact : metmap@orbifly.com




SOURCES & CREDITS :

   NOAA       Earth
Advisory